createdAt,value
2024-02-08T00:03:15.782Z,12.00
2024-02-08T00:08:15.754Z,12.50
2024-02-08T00:13:15.631Z,10.70
2024-02-08T00:18:15.662Z,11.80
2024-02-08T00:23:15.686Z,9.70
2024-02-08T00:28:15.430Z,10.20
2024-02-08T00:33:15.393Z,9.90
2024-02-08T00:38:15.478Z,10.70
2024-02-08T00:43:15.246Z,11.10
2024-02-08T00:48:15.258Z,13.50
2024-02-08T00:53:15.308Z,13.20
2024-02-08T00:58:15.022Z,13.20
2024-02-08T01:03:15.061Z,12.90
2024-02-08T01:08:14.886Z,12.50
2024-02-08T01:13:14.820Z,13.00
2024-02-08T01:18:14.949Z,11.40
2024-02-08T01:23:14.757Z,10.80
2024-02-08T01:28:14.631Z,10.30
2024-02-08T01:33:14.633Z,11.00
2024-02-08T01:38:14.528Z,13.30
2024-02-08T01:43:14.425Z,12.80
2024-02-08T01:48:14.443Z,10.60
2024-02-08T01:53:14.329Z,9.50
2024-02-08T01:58:14.216Z,10.40
2024-02-08T02:03:14.512Z,12.80
2024-02-08T02:08:14.106Z,8.80
2024-02-08T02:13:14.039Z,10.50
2024-02-08T02:18:14.078Z,9.10
2024-02-08T02:23:13.917Z,10.40
2024-02-08T02:28:13.862Z,10.00
2024-02-08T02:33:13.923Z,9.70
2024-02-08T02:38:13.961Z,12.00
2024-02-08T02:43:13.742Z,11.70
2024-02-08T02:48:13.886Z,11.30
2024-02-08T02:53:13.618Z,12.20
2024-02-08T02:58:13.716Z,11.30
2024-02-08T03:03:14.214Z,10.80
2024-02-08T03:08:13.500Z,10.90
2024-02-08T03:13:13.303Z,10.10
2024-02-08T03:18:13.281Z,10.80
2024-02-08T03:23:13.216Z,12.40
2024-02-08T03:28:13.365Z,15.00
2024-02-08T03:33:13.192Z,14.40
2024-02-08T03:38:13.079Z,14.00
2024-02-08T03:43:12.902Z,16.20
2024-02-08T03:48:13.046Z,13.60
2024-02-08T03:53:12.874Z,17.60
2024-02-08T03:58:12.698Z,13.20
2024-02-08T04:03:12.680Z,14.90
2024-02-08T04:08:12.610Z,18.90
2024-02-08T04:13:12.517Z,15.70
2024-02-08T04:18:12.529Z,16.40
2024-02-08T04:23:12.469Z,17.90
2024-02-08T04:28:12.345Z,15.30
2024-02-08T04:33:12.357Z,15.80
2024-02-08T04:38:12.283Z,16.70
2024-02-08T04:43:12.126Z,13.00
2024-02-08T04:48:12.136Z,14.20
2024-02-08T04:53:12.042Z,14.90
2024-02-08T04:58:27.928Z,15.50
2024-02-08T05:03:12.840Z,16.60
2024-02-08T05:08:11.812Z,14.90
2024-02-08T05:13:11.773Z,15.80
2024-02-08T05:18:11.732Z,14.50
2024-02-08T05:23:11.607Z,14.90
2024-02-08T05:28:11.654Z,14.70
2024-02-08T05:33:12.773Z,15.00
2024-02-08T05:38:11.444Z,16.50
2024-02-08T05:43:11.433Z,14.80
2024-02-08T05:48:11.528Z,15.10
2024-02-08T05:53:11.222Z,14.90
2024-02-08T05:58:11.208Z,15.70
2024-02-08T06:03:11.092Z,15.20
2024-02-08T06:08:11.055Z,12.90
2024-02-08T06:13:10.955Z,13.80
2024-02-08T06:18:10.928Z,13.70
2024-02-08T06:23:10.819Z,9.90
2024-02-08T06:28:10.853Z,10.40
2024-02-08T06:33:10.792Z,9.50
2024-02-08T06:38:10.696Z,9.70
2024-02-08T06:43:10.655Z,10.10
2024-02-08T06:48:10.587Z,9.20
2024-02-08T06:53:10.444Z,8.80
2024-02-08T06:58:10.460Z,8.40
2024-02-08T07:03:10.352Z,8.40
2024-02-08T07:08:10.412Z,8.80
2024-02-08T07:13:10.258Z,9.70
2024-02-08T07:18:13.407Z,8.90
2024-02-08T07:23:10.082Z,7.30
2024-02-08T07:28:10.028Z,10.40
2024-02-08T07:33:10.038Z,7.00
2024-02-08T07:38:09.890Z,7.20
2024-02-08T07:43:09.832Z,8.10
2024-02-08T07:48:10.120Z,7.60
2024-02-08T07:53:09.650Z,7.90
2024-02-08T07:58:10.120Z,7.80
2024-02-08T08:03:09.531Z,8.90
2024-02-08T08:08:09.482Z,8.80
2024-02-08T08:13:09.442Z,8.20
2024-02-08T08:18:09.379Z,8.10
2024-02-08T08:23:09.856Z,6.50
2024-02-08T08:28:09.206Z,7.10
2024-02-08T08:33:09.299Z,8.10
2024-02-08T08:38:09.237Z,8.30
2024-02-08T08:43:09.048Z,7.10
2024-02-08T08:48:09.133Z,6.30
2024-02-08T08:53:08.954Z,7.10
2024-02-08T08:58:08.886Z,7.30
2024-02-08T09:03:08.787Z,7.30
2024-02-08T09:08:08.746Z,8.10
2024-02-08T09:13:08.704Z,8.00
2024-02-08T09:18:08.631Z,6.50
2024-02-08T09:23:08.472Z,7.10
2024-02-08T09:28:08.460Z,7.90
2024-02-08T09:33:08.387Z,8.00
2024-02-08T09:38:08.280Z,7.60
2024-02-08T09:43:08.335Z,6.10
2024-02-08T09:48:08.499Z,6.60
2024-02-08T09:53:08.159Z,6.20
2024-02-08T09:58:08.064Z,7.20
2024-02-08T10:03:08.122Z,7.90
2024-02-08T10:08:07.912Z,7.50
2024-02-08T10:13:07.869Z,7.50
2024-02-08T10:18:07.814Z,6.90
2024-02-08T10:23:07.728Z,8.20
2024-02-08T10:28:07.703Z,7.70
2024-02-08T10:33:07.662Z,8.60
2024-02-08T10:38:07.484Z,9.10
2024-02-08T10:43:07.499Z,8.10
2024-02-08T10:48:07.389Z,8.30
2024-02-08T10:53:07.297Z,8.40
2024-02-08T10:58:07.315Z,9.30
2024-02-08T11:03:07.204Z,7.50
2024-02-08T11:08:07.137Z,8.40
2024-02-08T11:13:07.073Z,9.00
2024-02-08T11:18:09.083Z,10.50
2024-02-08T11:23:06.910Z,8.30
2024-02-08T11:28:14.317Z,7.20
2024-02-08T11:33:07.793Z,9.60
2024-02-08T11:38:06.687Z,8.60
2024-02-08T11:43:08.918Z,8.20
2024-02-08T11:48:06.697Z,10.00
2024-02-08T11:53:06.519Z,8.20
2024-02-08T11:58:06.531Z,8.40
2024-02-08T12:03:06.399Z,11.20
2024-02-08T12:08:06.355Z,11.10
2024-02-08T12:13:06.292Z,9.30
2024-02-08T12:18:06.275Z,8.00
2024-02-08T12:23:06.126Z,8.70
2024-02-08T12:28:06.461Z,9.30
2024-02-08T12:33:06.105Z,10.00
2024-02-08T12:38:05.957Z,6.70
2024-02-08T12:43:05.893Z,8.30
2024-02-08T12:48:06.075Z,7.50
2024-02-08T12:53:05.728Z,10.10
2024-02-08T12:58:06.398Z,7.60
2024-02-08T13:03:05.680Z,8.70
2024-02-08T13:08:05.651Z,9.00
2024-02-08T13:13:05.705Z,1.90
2024-02-08T13:18:05.547Z,7.60
2024-02-08T13:23:05.366Z,9.40
2024-02-08T13:28:05.336Z,9.50
2024-02-08T13:33:05.256Z,9.30
2024-02-08T13:38:05.324Z,8.90
2024-02-08T13:43:05.275Z,7.00
2024-02-08T13:48:05.368Z,8.60
2024-02-08T13:53:05.776Z,7.30
2024-02-08T13:58:04.901Z,9.10
2024-02-08T14:03:04.848Z,8.50
2024-02-08T14:08:04.757Z,8.50
2024-02-08T14:13:04.742Z,7.50
2024-02-08T14:18:04.718Z,7.20
2024-02-08T14:23:04.548Z,10.20
2024-02-08T14:28:04.525Z,7.00
2024-02-08T14:33:04.953Z,8.90
2024-02-08T14:38:04.371Z,9.90
2024-02-08T14:43:04.350Z,8.10
2024-02-08T14:48:04.320Z,9.50
2024-02-08T14:53:04.496Z,9.30
2024-02-08T14:58:04.187Z,9.00
2024-02-08T15:03:04.318Z,9.50
2024-02-08T15:08:03.974Z,11.00
2024-02-08T15:13:04.016Z,10.50
2024-02-08T15:18:03.872Z,10.10
2024-02-08T15:23:03.754Z,9.10
2024-02-08T15:28:03.846Z,9.30
2024-02-08T15:33:03.694Z,11.50
2024-02-08T15:38:03.663Z,11.60
2024-02-08T15:43:03.519Z,10.70
2024-02-08T15:48:04.246Z,12.50
2024-02-08T15:53:03.401Z,12.40
2024-02-08T15:58:03.347Z,12.10
2024-02-08T16:03:03.725Z,11.20
2024-02-08T16:08:03.229Z,11.50
2024-02-08T16:13:03.152Z,11.70
2024-02-08T16:18:03.133Z,11.60
2024-02-08T16:23:02.989Z,13.60
2024-02-08T16:28:02.935Z,13.70
2024-02-08T16:33:02.904Z,12.60
2024-02-08T16:38:02.776Z,12.80
2024-02-08T16:43:02.788Z,13.30
2024-02-08T16:48:02.694Z,13.60
2024-02-08T16:53:02.572Z,14.70
2024-02-08T16:58:02.909Z,11.60
2024-02-08T17:03:02.445Z,12.10
2024-02-08T17:08:02.387Z,12.50
2024-02-08T17:13:02.361Z,15.60
2024-02-08T17:18:02.327Z,14.30
2024-02-08T17:23:02.189Z,12.90
2024-02-08T17:28:02.324Z,12.40
2024-02-08T17:33:02.284Z,13.50
2024-02-08T17:38:02.088Z,12.50
2024-02-08T17:43:02.034Z,13.20
2024-02-08T17:48:02.312Z,12.70
2024-02-08T17:53:01.800Z,11.90
2024-02-08T17:58:01.771Z,13.80
2024-02-08T18:03:01.679Z,12.60
2024-02-08T18:08:01.826Z,12.60
2024-02-08T18:13:02.970Z,12.90
2024-02-08T18:18:01.523Z,11.00
2024-02-08T18:23:01.437Z,11.10
2024-02-08T18:28:01.714Z,10.00
2024-02-08T18:33:01.327Z,9.70
2024-02-08T18:38:01.249Z,10.00
2024-02-08T18:43:01.170Z,9.80
2024-02-08T18:48:01.158Z,9.30
2024-02-08T18:53:01.058Z,9.50
2024-02-08T18:58:01.150Z,9.30
2024-02-08T19:03:00.940Z,10.20
2024-02-08T19:08:00.853Z,9.30
2024-02-08T19:13:01.004Z,9.10
2024-02-08T19:18:06.220Z,7.90
2024-02-08T19:23:01.644Z,8.60
2024-02-08T19:28:00.688Z,9.70
2024-02-08T19:33:00.630Z,10.80
2024-02-08T19:38:00.463Z,8.50
2024-02-08T19:43:00.458Z,10.10
2024-02-08T19:48:00.352Z,9.80
2024-02-08T19:53:00.278Z,9.40
2024-02-08T19:58:00.539Z,10.70
2024-02-08T20:03:00.132Z,9.70
2024-02-08T20:08:00.109Z,10.80
2024-02-08T20:13:00.015Z,10.30
2024-02-08T20:18:00.176Z,11.20
2024-02-08T20:23:00.018Z,10.50
2024-02-08T20:28:00.289Z,9.20
2024-02-08T20:32:59.829Z,11.50
2024-02-08T20:37:59.690Z,10.60
2024-02-08T20:42:59.765Z,11.70
2024-02-08T20:47:59.571Z,11.40
2024-02-08T20:52:59.484Z,11.90
2024-02-08T20:57:59.428Z,12.70
2024-02-08T21:03:00.238Z,12.30
2024-02-08T21:07:59.309Z,12.90
2024-02-08T21:12:59.380Z,12.90
2024-02-08T21:17:59.236Z,15.00
2024-02-08T21:22:59.192Z,14.20
2024-02-08T21:27:59.084Z,13.80
2024-02-08T21:32:59.055Z,13.40
2024-02-08T21:37:58.909Z,13.90
2024-02-08T21:42:58.879Z,13.20
2024-02-08T21:47:58.818Z,13.50
2024-02-08T21:52:58.776Z,11.80
2024-02-08T21:57:58.694Z,15.80
2024-02-08T22:02:58.807Z,12.60
2024-02-08T22:07:58.774Z,12.50
2024-02-08T22:12:58.631Z,13.40
2024-02-08T22:17:58.509Z,11.30
2024-02-08T22:22:58.506Z,10.70
2024-02-08T22:27:58.467Z,9.90
2024-02-08T22:32:58.338Z,10.70
2024-02-08T22:37:58.205Z,9.60
2024-02-08T22:42:58.217Z,9.60
2024-02-08T22:47:58.145Z,9.70
2024-02-08T22:52:58.044Z,9.50
2024-02-08T22:57:58.020Z,9.40
2024-02-08T23:02:57.881Z,9.80
2024-02-08T23:07:57.823Z,10.30
2024-02-08T23:12:57.827Z,9.40
2024-02-08T23:17:57.714Z,9.40
2024-02-08T23:22:57.648Z,10.00
2024-02-08T23:27:57.560Z,10.30
2024-02-08T23:32:57.537Z,9.80
2024-02-08T23:37:57.426Z,9.90
2024-02-08T23:42:57.383Z,9.00
2024-02-08T23:47:57.352Z,10.40
2024-02-08T23:52:57.259Z,9.90
2024-02-08T23:57:57.191Z,10.10
